sensor_id;sensor_type;location;lat;lon;timestamp;pressure;altitude;pressure_sealevel;temperature;humidity
46111;BME280;31849;55.992;37.252;2023-05-09T00:00:40;100654.91;;;1.75;49.46
46111;BME280;31849;55.992;37.252;2023-05-09T00:05:44;100652.50;;;1.78;49.26
46111;BME280;31849;55.992;37.252;2023-05-09T00:10:48;100651.50;;;1.74;49.67
46111;BME280;31849;55.992;37.252;2023-05-09T00:15:53;100650.84;;;1.79;50.12
46111;BME280;31849;55.992;37.252;2023-05-09T00:20:58;100653.19;;;1.74;50.38
46111;BME280;31849;55.992;37.252;2023-05-09T00:26:03;100651.25;;;1.70;50.38
46111;BME280;31849;55.992;37.252;2023-05-09T00:31:08;100652.75;;;1.66;51.27
46111;BME280;31849;55.992;37.252;2023-05-09T00:36:12;100655.00;;;1.60;51.15
46111;BME280;31849;55.992;37.252;2023-05-09T00:41:15;100654.06;;;1.58;50.88
46111;BME280;31849;55.992;37.252;2023-05-09T00:46:21;100661.03;;;1.61;51.12
46111;BME280;31849;55.992;37.252;2023-05-09T00:51:24;100660.72;;;1.54;50.78
46111;BME280;31849;55.992;37.252;2023-05-09T00:56:29;100665.03;;;1.55;50.01
46111;BME280;31849;55.992;37.252;2023-05-09T01:01:35;100662.22;;;1.51;50.55
46111;BME280;31849;55.992;37.252;2023-05-09T01:06:44;100657.00;;;1.49;51.26
46111;BME280;31849;55.992;37.252;2023-05-09T01:12:00;100655.41;;;1.51;51.19
46111;BME280;31849;55.992;37.252;2023-05-09T01:17:15;100661.34;;;1.50;50.99
46111;BME280;31849;55.992;37.252;2023-05-09T01:22:19;100655.22;;;1.48;50.78
46111;BME280;31849;55.992;37.252;2023-05-09T01:27:36;100661.34;;;1.50;51.54
46111;BME280;31849;55.992;37.252;2023-05-09T01:32:48;100655.06;;;1.45;50.93
46111;BME280;31849;55.992;37.252;2023-05-09T01:37:53;100666.78;;;1.40;50.90
46111;BME280;31849;55.992;37.252;2023-05-09T01:43:01;100658.19;;;1.39;51.20
46111;BME280;31849;55.992;37.252;2023-05-09T01:48:08;100662.59;;;1.42;51.53
46111;BME280;31849;55.992;37.252;2023-05-09T01:53:13;100671.28;;;1.44;51.63
46111;BME280;31849;55.992;37.252;2023-05-09T01:58:18;100669.66;;;1.46;51.51
46111;BME280;31849;55.992;37.252;2023-05-09T02:03:24;100662.84;;;1.47;51.28
46111;BME280;31849;55.992;37.252;2023-05-09T02:08:28;100664.16;;;1.55;51.12
46111;BME280;31849;55.992;37.252;2023-05-09T02:13:32;100665.91;;;1.56;51.10
46111;BME280;31849;55.992;37.252;2023-05-09T02:18:37;100666.47;;;1.67;51.63
46111;BME280;31849;55.992;37.252;2023-05-09T02:23:40;100671.28;;;1.77;51.10
46111;BME280;31849;55.992;37.252;2023-05-09T02:28:44;100669.34;;;1.89;51.23
46111;BME280;31849;55.992;37.252;2023-05-09T02:33:51;100673.53;;;2.04;51.53
46111;BME280;31849;55.992;37.252;2023-05-09T02:38:55;100661.00;;;2.10;50.71
46111;BME280;31849;55.992;37.252;2023-05-09T02:43:59;100674.94;;;2.32;50.64
46111;BME280;31849;55.992;37.252;2023-05-09T02:49:04;100676.72;;;2.51;50.80
46111;BME280;31849;55.992;37.252;2023-05-09T02:54:07;100674.09;;;2.67;50.20
46111;BME280;31849;55.992;37.252;2023-05-09T02:59:11;100677.50;;;2.84;50.14
46111;BME280;31849;55.992;37.252;2023-05-09T03:04:15;100675.34;;;3.11;49.83
46111;BME280;31849;55.992;37.252;2023-05-09T03:09:20;100680.81;;;3.94;48.64
46111;BME280;31849;55.992;37.252;2023-05-09T03:14:24;100678.72;;;4.25;47.72
46111;BME280;31849;55.992;37.252;2023-05-09T03:19:29;100691.66;;;4.47;47.46
46111;BME280;31849;55.992;37.252;2023-05-09T03:24:32;100682.34;;;4.72;47.54
46111;BME280;31849;55.992;37.252;2023-05-09T03:29:36;100693.38;;;5.11;46.26
46111;BME280;31849;55.992;37.252;2023-05-09T03:34:40;100690.94;;;5.60;45.81
46111;BME280;31849;55.992;37.252;2023-05-09T03:39:44;100692.22;;;6.18;44.35
46111;BME280;31849;55.992;37.252;2023-05-09T03:44:47;100690.09;;;7.68;41.70
46111;BME280;31849;55.992;37.252;2023-05-09T03:49:52;100691.59;;;13.71;31.30
46111;BME280;31849;55.992;37.252;2023-05-09T03:54:56;100687.28;;;18.55;26.45
46111;BME280;31849;55.992;37.252;2023-05-09T03:59:59;100687.19;;;20.43;22.13
46111;BME280;31849;55.992;37.252;2023-05-09T04:05:07;100690.72;;;22.66;19.79
46111;BME280;31849;55.992;37.252;2023-05-09T04:10:11;100694.69;;;24.28;17.57
46111;BME280;31849;55.992;37.252;2023-05-09T04:15:14;100701.69;;;26.15;15.91
46111;BME280;31849;55.992;37.252;2023-05-09T04:20:20;100702.53;;;27.59;14.66
46111;BME280;31849;55.992;37.252;2023-05-09T04:25:23;100691.78;;;29.03;13.40
46111;BME280;31849;55.992;37.252;2023-05-09T04:30:27;100700.47;;;29.80;12.38
46111;BME280;31849;55.992;37.252;2023-05-09T04:35:32;100694.06;;;31.32;11.88
46111;BME280;31849;55.992;37.252;2023-05-09T04:40:35;100701.84;;;32.36;11.01
46111;BME280;31849;55.992;37.252;2023-05-09T04:45:39;100703.63;;;33.78;10.21
46111;BME280;31849;55.992;37.252;2023-05-09T04:50:44;100694.03;;;34.51;9.38
46111;BME280;31849;55.992;37.252;2023-05-09T04:55:49;100695.44;;;34.99;8.80
46111;BME280;31849;55.992;37.252;2023-05-09T05:00:55;100695.34;;;35.94;8.13
46111;BME280;31849;55.992;37.252;2023-05-09T05:06:00;100703.53;;;37.21;8.23
46111;BME280;31849;55.992;37.252;2023-05-09T05:11:04;100699.25;;;37.28;7.49
46111;BME280;31849;55.992;37.252;2023-05-09T05:16:07;100697.97;;;38.15;6.34
46111;BME280;31849;55.992;37.252;2023-05-09T05:21:12;100707.25;;;38.59;6.31
46111;BME280;31849;55.992;37.252;2023-05-09T05:26:17;100707.41;;;38.93;5.73
46111;BME280;31849;55.992;37.252;2023-05-09T05:31:20;100694.22;;;39.59;5.54
46111;BME280;31849;55.992;37.252;2023-05-09T05:36:25;100699.34;;;40.05;5.28
46111;BME280;31849;55.992;37.252;2023-05-09T05:41:29;100696.19;;;40.34;5.01
46111;BME280;31849;55.992;37.252;2023-05-09T05:46:33;100690.91;;;40.82;4.95
46111;BME280;31849;55.992;37.252;2023-05-09T05:51:38;100691.28;;;41.04;4.46
46111;BME280;31849;55.992;37.252;2023-05-09T05:56:41;100691.34;;;39.08;5.04
46111;BME280;31849;55.992;37.252;2023-05-09T06:01:45;100678.09;;;39.66;4.52
46111;BME280;31849;55.992;37.252;2023-05-09T06:06:50;100672.88;;;39.81;4.74
46111;BME280;31849;55.992;37.252;2023-05-09T06:11:53;100677.97;;;39.15;4.94
46111;BME280;31849;55.992;37.252;2023-05-09T06:16:57;100673.06;;;40.55;4.33
46111;BME280;31849;55.992;37.252;2023-05-09T06:22:02;100674.25;;;41.58;4.04
46111;BME280;31849;55.992;37.252;2023-05-09T06:27:06;100669.59;;;40.20;4.38
46111;BME280;31849;55.992;37.252;2023-05-09T06:32:09;100648.22;;;33.51;6.50
46111;BME280;31849;55.992;37.252;2023-05-09T06:37:14;100645.34;;;28.27;8.87
46111;BME280;31849;55.992;37.252;2023-05-09T06:42:18;100643.25;;;25.14;10.88
46111;BME280;31849;55.992;37.252;2023-05-09T06:47:21;100629.69;;;22.94;11.88
46111;BME280;31849;55.992;37.252;2023-05-09T06:52:26;100635.03;;;21.83;13.24
46111;BME280;31849;55.992;37.252;2023-05-09T06:57:29;100628.31;;;20.39;14.40
46111;BME280;31849;55.992;37.252;2023-05-09T07:02:33;100622.47;;;19.45;15.09
46111;BME280;31849;55.992;37.252;2023-05-09T07:07:38;100622.13;;;19.18;15.21
46111;BME280;31849;55.992;37.252;2023-05-09T07:12:41;100617.47;;;18.83;15.29
46111;BME280;31849;55.992;37.252;2023-05-09T07:17:45;100621.22;;;18.69;15.89
46111;BME280;31849;55.992;37.252;2023-05-09T07:22:50;100622.41;;;18.50;15.71
46111;BME280;31849;55.992;37.252;2023-05-09T07:27:54;100616.59;;;18.31;16.12
46111;BME280;31849;55.992;37.252;2023-05-09T07:32:57;100612.25;;;18.26;16.07
46111;BME280;31849;55.992;37.252;2023-05-09T07:38:03;100605.28;;;18.22;16.53
46111;BME280;31849;55.992;37.252;2023-05-09T07:43:07;100603.91;;;17.98;16.42
46111;BME280;31849;55.992;37.252;2023-05-09T07:48:11;100602.53;;;17.68;16.70
46111;BME280;31849;55.992;37.252;2023-05-09T07:53:15;100594.13;;;17.41;17.21
46111;BME280;31849;55.992;37.252;2023-05-09T07:58:19;100601.31;;;17.28;17.13
46111;BME280;31849;55.992;37.252;2023-05-09T08:03:23;100594.44;;;17.16;17.08
46111;BME280;31849;55.992;37.252;2023-05-09T08:08:28;100588.97;;;17.33;17.28
46111;BME280;31849;55.992;37.252;2023-05-09T08:13:32;100584.53;;;17.38;17.60
46111;BME280;31849;55.992;37.252;2023-05-09T08:18:35;100583.28;;;17.66;17.47
46111;BME280;31849;55.992;37.252;2023-05-09T08:23:40;100561.22;;;17.76;17.17
46111;BME280;31849;55.992;37.252;2023-05-09T08:28:44;100571.47;;;18.51;16.93
46111;BME280;31849;55.992;37.252;2023-05-09T08:33:47;100564.16;;;19.57;15.79
46111;BME280;31849;55.992;37.252;2023-05-09T08:38:52;100559.41;;;20.12;15.66
46111;BME280;31849;55.992;37.252;2023-05-09T08:43:56;100552.88;;;20.27;15.19
46111;BME280;31849;55.992;37.252;2023-05-09T08:49:00;100549.13;;;19.20;15.76
46111;BME280;31849;55.992;37.252;2023-05-09T08:54:05;100540.19;;;18.34;16.72
46111;BME280;31849;55.992;37.252;2023-05-09T08:59:09;100539.66;;;18.61;16.30
46111;BME280;31849;55.992;37.252;2023-05-09T09:04:13;100537.41;;;18.91;15.95
46111;BME280;31849;55.992;37.252;2023-05-09T09:09:18;100523.69;;;19.18;15.68
46111;BME280;31849;55.992;37.252;2023-05-09T09:14:23;100521.84;;;19.23;15.49
46111;BME280;31849;55.992;37.252;2023-05-09T09:19:29;100518.38;;;18.74;15.64
46111;BME280;31849;55.992;37.252;2023-05-09T09:24:35;100515.28;;;18.00;16.33
46111;BME280;31849;55.992;37.252;2023-05-09T09:29:38;100497.94;;;18.40;16.01
46111;BME280;31849;55.992;37.252;2023-05-09T09:34:43;100497.47;;;18.66;15.84
46111;BME280;31849;55.992;37.252;2023-05-09T09:39:54;100506.91;;;19.22;15.78
46111;BME280;31849;55.992;37.252;2023-05-09T09:45:01;100503.84;;;19.42;15.57
46111;BME280;31849;55.992;37.252;2023-05-09T09:50:09;100481.91;;;19.40;15.47
46111;BME280;31849;55.992;37.252;2023-05-09T09:55:16;100491.22;;;19.94;15.17
46111;BME280;31849;55.992;37.252;2023-05-09T10:00:25;100492.84;;;20.34;14.77
46111;BME280;31849;55.992;37.252;2023-05-09T10:05:30;100489.13;;;20.41;14.22
46111;BME280;31849;55.992;37.252;2023-05-09T10:10:36;100490.13;;;20.37;14.10
46111;BME280;31849;55.992;37.252;2023-05-09T10:15:40;100478.94;;;19.93;14.73
46111;BME280;31849;55.992;37.252;2023-05-09T10:20:55;100483.69;;;19.78;14.89
46111;BME280;31849;55.992;37.252;2023-05-09T10:26:10;100468.84;;;19.71;14.61
46111;BME280;31849;55.992;37.252;2023-05-09T10:31:21;100479.16;;;19.04;14.88
46111;BME280;31849;55.992;37.252;2023-05-09T10:36:25;100476.56;;;18.55;15.51
46111;BME280;31849;55.992;37.252;2023-05-09T10:41:31;100455.41;;;18.15;15.63
46111;BME280;31849;55.992;37.252;2023-05-09T10:46:35;100463.13;;;18.24;16.39
46111;BME280;31849;55.992;37.252;2023-05-09T10:51:39;100457.59;;;18.39;15.90
46111;BME280;31849;55.992;37.252;2023-05-09T10:56:44;100439.88;;;18.48;15.93
46111;BME280;31849;55.992;37.252;2023-05-09T11:01:56;100440.88;;;18.87;16.26
46111;BME280;31849;55.992;37.252;2023-05-09T11:07:02;100432.50;;;19.07;15.75
46111;BME280;31849;55.992;37.252;2023-05-09T11:12:11;100417.66;;;18.61;15.67
46111;BME280;31849;55.992;37.252;2023-05-09T11:17:27;100411.44;;;18.18;16.30
46111;BME280;31849;55.992;37.252;2023-05-09T11:22:37;100398.91;;;18.33;15.79
46111;BME280;31849;55.992;37.252;2023-05-09T11:27:45;100394.13;;;18.06;16.14
46111;BME280;31849;55.992;37.252;2023-05-09T11:32:50;100383.88;;;18.38;15.80
46111;BME280;31849;55.992;37.252;2023-05-09T11:37:59;100387.03;;;18.12;15.84
46111;BME280;31849;55.992;37.252;2023-05-09T11:43:06;100358.00;;;18.15;16.62
46111;BME280;31849;55.992;37.252;2023-05-09T11:48:10;100380.41;;;17.86;16.93
46111;BME280;31849;55.992;37.252;2023-05-09T11:53:13;100375.41;;;17.72;16.63
46111;BME280;31849;55.992;37.252;2023-05-09T11:58:19;100372.88;;;17.66;16.54
46111;BME280;31849;55.992;37.252;2023-05-09T12:03:22;100370.25;;;17.66;16.67
46111;BME280;31849;55.992;37.252;2023-05-09T12:08:26;100367.16;;;17.40;16.76
46111;BME280;31849;55.992;37.252;2023-05-09T12:13:32;100376.53;;;16.99;16.90
46111;BME280;31849;55.992;37.252;2023-05-09T12:18:37;100366.38;;;16.73;17.23
46111;BME280;31849;55.992;37.252;2023-05-09T12:23:40;100350.81;;;16.58;17.53
46111;BME280;31849;55.992;37.252;2023-05-09T12:28:46;100353.81;;;16.25;17.60
46111;BME280;31849;55.992;37.252;2023-05-09T12:33:50;100346.25;;;16.00;17.67
46111;BME280;31849;55.992;37.252;2023-05-09T12:38:54;100339.47;;;15.73;18.15
46111;BME280;31849;55.992;37.252;2023-05-09T12:43:59;100336.38;;;15.26;19.32
46111;BME280;31849;55.992;37.252;2023-05-09T12:49:03;100320.81;;;15.05;19.23
46111;BME280;31849;55.992;37.252;2023-05-09T12:54:07;100312.03;;;15.10;18.88
46111;BME280;31849;55.992;37.252;2023-05-09T12:59:19;100291.78;;;15.34;19.05
46111;BME280;31849;55.992;37.252;2023-05-09T13:04:24;100286.69;;;15.19;18.22
46111;BME280;31849;55.992;37.252;2023-05-09T13:09:28;100293.41;;;15.47;18.32
46111;BME280;31849;55.992;37.252;2023-05-09T13:14:33;100290.06;;;15.30;18.10
46111;BME280;31849;55.992;37.252;2023-05-09T13:19:37;100277.88;;;15.23;18.40
46111;BME280;31849;55.992;37.252;2023-05-09T13:24:41;100278.38;;;15.67;18.54
46111;BME280;31849;55.992;37.252;2023-05-09T13:29:46;100271.00;;;16.04;17.75
46111;BME280;31849;55.992;37.252;2023-05-09T13:34:49;100267.75;;;15.82;17.58
46111;BME280;31849;55.992;37.252;2023-05-09T13:39:53;100259.91;;;15.80;17.52
46111;BME280;31849;55.992;37.252;2023-05-09T13:44:58;100246.53;;;16.04;18.19
46111;BME280;31849;55.992;37.252;2023-05-09T13:50:06;100245.47;;;16.18;17.44
46111;BME280;31849;55.992;37.252;2023-05-09T13:55:10;100241.72;;;16.37;17.43
46111;BME280;31849;55.992;37.252;2023-05-09T14:00:15;100239.53;;;16.66;17.51
46111;BME280;31849;55.992;37.252;2023-05-09T14:05:19;100241.94;;;16.80;17.13
46111;BME280;31849;55.992;37.252;2023-05-09T14:10:23;100229.31;;;17.05;17.41
46111;BME280;31849;55.992;37.252;2023-05-09T14:15:29;100231.69;;;17.21;17.25
46111;BME280;31849;55.992;37.252;2023-05-09T14:20:32;100226.38;;;17.24;17.64
46111;BME280;31849;55.992;37.252;2023-05-09T14:25:38;100216.69;;;17.26;17.10
46111;BME280;31849;55.992;37.252;2023-05-09T14:30:43;100222.03;;;17.21;16.73
46111;BME280;31849;55.992;37.252;2023-05-09T14:35:47;100209.41;;;16.92;17.00
46111;BME280;31849;55.992;37.252;2023-05-09T14:40:50;100203.09;;;16.45;17.34
46111;BME280;31849;55.992;37.252;2023-05-09T14:45:55;100209.44;;;16.28;17.37
46111;BME280;31849;55.992;37.252;2023-05-09T14:50:59;100209.00;;;15.97;17.97
46111;BME280;31849;55.992;37.252;2023-05-09T14:56:03;100212.59;;;15.88;18.14
46111;BME280;31849;55.992;37.252;2023-05-09T15:01:09;100203.25;;;15.62;18.12
46111;BME280;31849;55.992;37.252;2023-05-09T15:06:12;100203.25;;;15.62;18.23
46111;BME280;31849;55.992;37.252;2023-05-09T15:11:16;100210.25;;;15.63;17.99
46111;BME280;31849;55.992;37.252;2023-05-09T15:16:21;100204.28;;;15.49;18.31
46111;BME280;31849;55.992;37.252;2023-05-09T15:21:25;100207.81;;;15.43;18.65
46111;BME280;31849;55.992;37.252;2023-05-09T15:26:30;100200.97;;;15.32;18.59
46111;BME280;31849;55.992;37.252;2023-05-09T15:31:35;100198.38;;;15.28;18.53
46111;BME280;31849;55.992;37.252;2023-05-09T15:36:38;100195.00;;;15.14;18.68
46111;BME280;31849;55.992;37.252;2023-05-09T15:41:42;100187.16;;;15.12;18.97
46111;BME280;31849;55.992;37.252;2023-05-09T15:46:47;100187.41;;;14.86;18.98
46111;BME280;31849;55.992;37.252;2023-05-09T15:51:51;100185.91;;;14.51;19.69
46111;BME280;31849;55.992;37.252;2023-05-09T15:56:54;100186.91;;;14.29;19.80
46111;BME280;31849;55.992;37.252;2023-05-09T16:01:59;100178.31;;;14.10;19.85
46111;BME280;31849;55.992;37.252;2023-05-09T16:07:03;100171.41;;;13.98;20.36
46111;BME280;31849;55.992;37.252;2023-05-09T16:12:07;100176.69;;;13.84;21.20
46111;BME280;31849;55.992;37.252;2023-05-09T16:17:12;100160.25;;;13.54;21.61
46111;BME280;31849;55.992;37.252;2023-05-09T16:22:15;100158.56;;;13.44;21.97
46111;BME280;31849;55.992;37.252;2023-05-09T16:27:19;100160.28;;;13.29;22.76
46111;BME280;31849;55.992;37.252;2023-05-09T16:32:24;100157.72;;;13.12;22.96
46111;BME280;31849;55.992;37.252;2023-05-09T16:37:27;100164.69;;;13.04;23.14
46111;BME280;31849;55.992;37.252;2023-05-09T16:42:31;100152.53;;;12.81;23.42
46111;BME280;31849;55.992;37.252;2023-05-09T16:47:36;100149.03;;;12.73;24.27
46111;BME280;31849;55.992;37.252;2023-05-09T16:52:40;100147.31;;;12.47;24.47
46111;BME280;31849;55.992;37.252;2023-05-09T16:57:43;100151.63;;;12.30;24.69
46111;BME280;31849;55.992;37.252;2023-05-09T17:02:48;100150.72;;;12.19;24.92
46111;BME280;31849;55.992;37.252;2023-05-09T17:07:52;100146.34;;;12.04;25.86
46111;BME280;31849;55.992;37.252;2023-05-09T17:12:56;100149.75;;;11.86;26.65
46111;BME280;31849;55.992;37.252;2023-05-09T17:18:01;100148.78;;;11.65;26.66
46111;BME280;31849;55.992;37.252;2023-05-09T17:23:04;100165.31;;;11.69;25.90
46111;BME280;31849;55.992;37.252;2023-05-09T17:28:08;100165.31;;;11.69;26.88
46111;BME280;31849;55.992;37.252;2023-05-09T17:33:13;100163.53;;;11.60;27.38
46111;BME280;31849;55.992;37.252;2023-05-09T17:38:19;100166.94;;;11.43;28.74
46111;BME280;31849;55.992;37.252;2023-05-09T17:43:23;100167.75;;;11.36;28.13
46111;BME280;31849;55.992;37.252;2023-05-09T17:48:30;100166.88;;;11.31;27.83
46111;BME280;31849;55.992;37.252;2023-05-09T17:53:33;100172.09;;;11.34;27.88
46111;BME280;31849;55.992;37.252;2023-05-09T17:58:37;100176.41;;;11.34;28.38
46111;BME280;31849;55.992;37.252;2023-05-09T18:03:42;100166.88;;;11.31;29.11
46111;BME280;31849;55.992;37.252;2023-05-09T18:08:46;100161.56;;;11.20;29.30
46111;BME280;31849;55.992;37.252;2023-05-09T18:13:50;100157.94;;;10.97;28.88
46111;BME280;31849;55.992;37.252;2023-05-09T18:18:55;100163.19;;;11.01;28.97
46111;BME280;31849;55.992;37.252;2023-05-09T18:24:00;100157.09;;;10.99;29.84
46111;BME280;31849;55.992;37.252;2023-05-09T18:29:04;100157.91;;;10.89;29.92
46111;BME280;31849;55.992;37.252;2023-05-09T18:34:09;100156.94;;;10.78;29.66
46111;BME280;31849;55.992;37.252;2023-05-09T18:39:13;100167.25;;;10.65;29.69
46111;BME280;31849;55.992;37.252;2023-05-09T18:44:17;100139.28;;;10.38;30.66
46111;BME280;31849;55.992;37.252;2023-05-09T18:49:22;100169.69;;;10.44;31.03
46111;BME280;31849;55.992;37.252;2023-05-09T18:54:27;100163.38;;;10.23;33.01
46111;BME280;31849;55.992;37.252;2023-05-09T18:59:31;100168.22;;;9.91;32.52
46111;BME280;31849;55.992;37.252;2023-05-09T19:04:36;100169.72;;;9.72;33.90
46111;BME280;31849;55.992;37.252;2023-05-09T19:09:39;100164.28;;;9.53;34.64
46111;BME280;31849;55.992;37.252;2023-05-09T19:14:43;100165.88;;;9.42;34.84
46111;BME280;31849;55.992;37.252;2023-05-09T19:19:48;100170.22;;;9.44;35.06
46111;BME280;31849;55.992;37.252;2023-05-09T19:24:52;100161.47;;;9.36;35.53
46111;BME280;31849;55.992;37.252;2023-05-09T19:29:55;100160.50;;;9.29;36.42
46111;BME280;31849;55.992;37.252;2023-05-09T19:35:01;100160.59;;;9.36;35.64
46111;BME280;31849;55.992;37.252;2023-05-09T19:40:06;100161.47;;;9.36;35.72
46111;BME280;31849;55.992;37.252;2023-05-09T19:45:10;100157.03;;;9.30;36.69
46111;BME280;31849;55.992;37.252;2023-05-09T19:50:16;100159.56;;;9.24;37.33
46111;BME280;31849;55.992;37.252;2023-05-09T19:55:20;100162.13;;;9.21;37.04
46111;BME280;31849;55.992;37.252;2023-05-09T20:00:24;100155.13;;;9.17;37.66
46111;BME280;31849;55.992;37.252;2023-05-09T20:05:30;100162.06;;;9.17;37.96
46111;BME280;31849;55.992;37.252;2023-05-09T20:10:34;100155.78;;;9.02;38.38
46111;BME280;31849;55.992;37.252;2023-05-09T20:15:37;100156.31;;;8.79;37.66
46111;BME280;31849;55.992;37.252;2023-05-09T20:20:43;100154.66;;;8.86;37.24
46111;BME280;31849;55.992;37.252;2023-05-09T20:25:46;100157.31;;;8.88;38.26
46111;BME280;31849;55.992;37.252;2023-05-09T20:30:50;100153.81;;;8.87;38.50
46111;BME280;31849;55.992;37.252;2023-05-09T20:35:55;100158.25;;;8.94;39.91
46111;BME280;31849;55.992;37.252;2023-05-09T20:40:59;100112.94;;;8.69;39.65
46111;BME280;31849;55.992;37.252;2023-05-09T20:46:02;100153.00;;;8.88;39.13
46111;BME280;31849;55.992;37.252;2023-05-09T20:51:07;100147.91;;;8.96;40.33
46111;BME280;31849;55.992;37.252;2023-05-09T20:56:11;100148.75;;;8.95;39.45
46111;BME280;31849;55.992;37.252;2023-05-09T21:01:15;100151.22;;;8.87;39.82
46111;BME280;31849;55.992;37.252;2023-05-09T21:06:20;100153.06;;;8.94;39.37
46111;BME280;31849;55.992;37.252;2023-05-09T21:11:23;100151.47;;;9.01;38.61
46111;BME280;31849;55.992;37.252;2023-05-09T21:16:26;100148.66;;;8.89;39.41
46111;BME280;31849;55.992;37.252;2023-05-09T21:21:32;100145.44;;;8.50;40.61
46111;BME280;31849;55.992;37.252;2023-05-09T21:26:35;100151.88;;;8.25;41.71
46111;BME280;31849;55.992;37.252;2023-05-09T21:31:38;100145.25;;;8.39;41.05
46111;BME280;31849;55.992;37.252;2023-05-09T21:36:43;100133.41;;;8.52;40.45
46111;BME280;31849;55.992;37.252;2023-05-09T21:41:46;100149.13;;;8.63;39.52
46111;BME280;31849;55.992;37.252;2023-05-09T21:46:50;100140.50;;;8.64;40.97
46111;BME280;31849;55.992;37.252;2023-05-09T21:51:55;100145.00;;;8.74;40.61
46111;BME280;31849;55.992;37.252;2023-05-09T21:56:59;100124.06;;;8.63;41.26
46111;BME280;31849;55.992;37.252;2023-05-09T22:02:02;100144.19;;;8.78;41.10
46111;BME280;31849;55.992;37.252;2023-05-09T22:07:07;100137.34;;;8.84;41.12
46111;BME280;31849;55.992;37.252;2023-05-09T22:12:11;100138.25;;;8.87;40.00
46111;BME280;31849;55.992;37.252;2023-05-09T22:17:14;100135.56;;;8.79;41.23
46111;BME280;31849;55.992;37.252;2023-05-09T22:22:19;100126.06;;;8.82;41.38
46111;BME280;31849;55.992;37.252;2023-05-09T22:27:23;100132.19;;;8.84;41.54
46111;BME280;31849;55.992;37.252;2023-05-09T22:32:27;100131.31;;;8.85;42.25
46111;BME280;31849;55.992;37.252;2023-05-09T22:37:31;100126.03;;;8.78;41.62
46111;BME280;31849;55.992;37.252;2023-05-09T22:42:35;100127.69;;;8.73;41.10
46111;BME280;31849;55.992;37.252;2023-05-09T22:47:38;100119.34;;;8.41;41.27
46111;BME280;31849;55.992;37.252;2023-05-09T22:52:43;100118.31;;;8.31;41.29
46111;BME280;31849;55.992;37.252;2023-05-09T22:57:46;100118.44;;;8.37;40.31
46111;BME280;31849;55.992;37.252;2023-05-09T23:02:50;100119.31;;;8.39;40.68
46111;BME280;31849;55.992;37.252;2023-05-09T23:07:56;100120.31;;;8.46;39.97
46111;BME280;31849;55.992;37.252;2023-05-09T23:12:59;100111.72;;;8.47;40.25
46111;BME280;31849;55.992;37.252;2023-05-09T23:18:03;100109.56;;;8.24;40.89
46111;BME280;31849;55.992;37.252;2023-05-09T23:23:08;100108.41;;;8.07;40.85
46111;BME280;31849;55.992;37.252;2023-05-09T23:28:11;100116.28;;;8.15;39.63
46111;BME280;31849;55.992;37.252;2023-05-09T23:33:14;100118.19;;;8.23;40.65
46111;BME280;31849;55.992;37.252;2023-05-09T23:38:19;100114.06;;;8.35;41.85
46111;BME280;31849;55.992;37.252;2023-05-09T23:43:23;100108.78;;;8.28;41.90
46111;BME280;31849;55.992;37.252;2023-05-09T23:48:27;100104.94;;;8.06;42.13
46111;BME280;31849;55.992;37.252;2023-05-09T23:53:31;100110.03;;;8.02;41.92
46111;BME280;31849;55.992;37.252;2023-05-09T23:58:36;100107.53;;;8.06;41.02
